createdAt,value
2022-11-20T00:01:43.135Z,-4.13
2022-11-20T00:06:47.754Z,-4.02
2022-11-20T00:11:49.715Z,-4.11
2022-11-20T00:16:51.745Z,-4.19
2022-11-20T00:21:56.307Z,-4.26
2022-11-20T00:26:58.079Z,-4.23
2022-11-20T00:32:00.024Z,-4.24
2022-11-20T00:37:03.333Z,-4.33
2022-11-20T00:42:05.381Z,-4.41
2022-11-20T00:47:07.350Z,-4.51
2022-11-20T00:52:10.745Z,-4.63
2022-11-20T00:57:12.726Z,-4.97
2022-11-20T01:02:16.435Z,-4.81
2022-11-20T01:07:19.804Z,-5.11
2022-11-20T01:12:21.961Z,-5.17
2022-11-20T01:17:24.029Z,-5.12
2022-11-20T01:22:27.303Z,-5.06
2022-11-20T01:27:29.236Z,-5.21
2022-11-20T01:32:31.175Z,-5.31
2022-11-20T01:37:34.457Z,-5.29
2022-11-20T01:42:55.120Z,-5.25
2022-11-20T01:47:57.057Z,-5.37
2022-11-20T01:53:04.925Z,-5.62
2022-11-20T01:58:07.236Z,-5.70
2022-11-20T02:03:12.152Z,-5.73
2022-11-20T02:08:16.558Z,-5.70
2022-11-20T02:13:37.072Z,-5.65
2022-11-20T02:18:39.748Z,-5.76
2022-11-20T02:23:55.116Z,-5.85
2022-11-20T02:28:58.067Z,-5.97
2022-11-20T02:34:00.096Z,-5.89
2022-11-20T02:39:03.679Z,-5.77
2022-11-20T02:44:06.473Z,-5.53
2022-11-20T02:49:08.456Z,-5.57
2022-11-20T02:54:11.749Z,-5.40
2022-11-20T02:59:13.779Z,-5.32
2022-11-20T03:04:15.869Z,-5.33
2022-11-20T03:09:19.568Z,-5.33
2022-11-20T03:14:21.799Z,-5.45
2022-11-20T03:19:23.934Z,-5.49
2022-11-20T03:24:27.675Z,-5.47
2022-11-20T03:29:29.901Z,-5.46
2022-11-20T03:34:31.827Z,-5.53
2022-11-20T03:39:35.076Z,-5.53
2022-11-20T03:44:36.996Z,-5.54
2022-11-20T03:49:38.900Z,-5.36
2022-11-20T03:54:42.209Z,-5.40
2022-11-20T03:59:44.184Z,-5.24
2022-11-20T04:04:46.107Z,-5.00
2022-11-20T04:09:49.468Z,-4.80
2022-11-20T04:14:51.374Z,-4.72
2022-11-20T04:19:53.348Z,-4.54
2022-11-20T04:24:56.641Z,-4.38
2022-11-20T04:29:58.569Z,-4.34
2022-11-20T04:35:00.517Z,-4.25
2022-11-20T04:40:04.386Z,-4.23
2022-11-20T04:45:07.175Z,-4.18
2022-11-20T04:50:10.079Z,-4.13
2022-11-20T04:55:13.443Z,-4.08
2022-11-20T05:00:16.584Z,-4.08
2022-11-20T05:05:19.002Z,-4.03
2022-11-20T05:10:22.298Z,-4.06
2022-11-20T05:15:24.216Z,-4.01
2022-11-20T05:20:26.360Z,-3.91
2022-11-20T05:25:29.607Z,-3.96
2022-11-20T05:30:31.598Z,-4.03
2022-11-20T05:35:33.566Z,-4.14
2022-11-20T05:40:37.506Z,-4.31
2022-11-20T05:45:39.447Z,-4.42
2022-11-20T05:50:41.396Z,-4.56
2022-11-20T05:55:44.852Z,-4.47
2022-11-20T06:00:46.774Z,-4.61
2022-11-20T06:05:48.836Z,-4.72
2022-11-20T06:10:52.816Z,-4.94
2022-11-20T06:15:55.077Z,-4.94
2022-11-20T06:21:01.960Z,-4.95
2022-11-20T06:26:06.978Z,-5.02
2022-11-20T06:31:12.180Z,-5.08
2022-11-20T06:36:16.413Z,-5.01
2022-11-20T06:41:21.573Z,-4.96
2022-11-20T06:46:23.585Z,-5.11
2022-11-20T06:51:25.798Z,-5.24
2022-11-20T06:56:29.339Z,-5.09
2022-11-20T07:01:31.283Z,-5.18
2022-11-20T07:06:33.269Z,-5.13
2022-11-20T07:11:36.512Z,-4.94
2022-11-20T07:16:38.483Z,-3.58
2022-11-20T07:21:40.488Z,-2.55
2022-11-20T07:26:46.636Z,-2.97
2022-11-20T07:31:48.567Z,-3.21
2022-11-20T07:36:50.609Z,-3.18
2022-11-20T07:41:53.933Z,-3.09
2022-11-20T07:46:56.008Z,-2.99
2022-11-20T07:52:03.165Z,-2.86
2022-11-20T07:57:07.903Z,-2.76
2022-11-20T08:02:11.018Z,-2.58
2022-11-20T08:07:13.078Z,-2.60
2022-11-20T08:12:39.180Z,-2.37
2022-11-20T08:17:41.160Z,-2.39
2022-11-20T08:22:43.162Z,-2.29
2022-11-20T08:27:46.536Z,-2.24
2022-11-20T08:32:48.504Z,-2.17
2022-11-20T08:37:50.615Z,-2.22
2022-11-20T08:42:53.911Z,-1.96
2022-11-20T08:48:01.143Z,-1.43
2022-11-20T08:53:04.431Z,-1.29
2022-11-20T08:58:07.798Z,-1.07
2022-11-20T09:03:10.105Z,-1.07
2022-11-20T09:08:12.233Z,-0.78
2022-11-20T09:13:15.573Z,-0.56
2022-11-20T09:18:17.509Z,-0.26
2022-11-20T09:23:19.698Z,-0.29
2022-11-20T09:28:23.211Z,-0.60
2022-11-20T09:33:25.119Z,-0.16
2022-11-20T09:38:27.142Z,-0.63
2022-11-20T09:43:43.474Z,-0.86
2022-11-20T09:49:05.005Z,-0.60
2022-11-20T09:54:16.297Z,-0.77
2022-11-20T09:59:33.309Z,-0.46
2022-11-20T10:04:43.719Z,-0.79
2022-11-20T10:09:51.242Z,-0.08
2022-11-20T10:15:15.481Z,0.07
2022-11-20T10:20:24.962Z,-0.01
2022-11-20T10:25:34.816Z,0.09
2022-11-20T10:30:43.373Z,0.13
2022-11-20T10:35:50.068Z,0.98
2022-11-20T10:41:15.658Z,1.42
2022-11-20T10:46:23.142Z,1.01
2022-11-20T10:51:36.691Z,0.70
2022-11-20T10:56:48.309Z,1.02
2022-11-20T11:01:53.102Z,1.19
2022-11-20T11:07:00.121Z,0.86
2022-11-20T11:12:06.932Z,0.51
2022-11-20T11:17:22.573Z,0.76
2022-11-20T11:22:24.620Z,0.74
2022-11-20T11:27:26.632Z,0.81
2022-11-20T11:32:30.031Z,0.46
2022-11-20T11:37:36.631Z,0.51
2022-11-20T11:42:44.044Z,0.50
2022-11-20T11:47:49.249Z,0.49
2022-11-20T11:53:03.105Z,0.46
2022-11-20T11:58:17.934Z,0.28
2022-11-20T12:03:25.678Z,0.58
2022-11-20T12:08:33.421Z,0.39
2022-11-20T12:13:45.041Z,0.58
2022-11-20T12:18:49.885Z,0.72
2022-11-20T12:31:53.896Z,2.21
2022-11-20T12:37:00.608Z,1.45
2022-11-20T12:42:39.186Z,1.08
2022-11-20T12:48:04.021Z,0.90
2022-11-20T12:53:11.924Z,1.14
2022-11-20T12:58:21.853Z,0.57
2022-11-20T13:03:41.552Z,1.06
2022-11-20T13:08:49.178Z,1.10
2022-11-20T13:14:06.030Z,1.01
2022-11-20T13:19:13.120Z,1.07
2022-11-20T13:24:26.363Z,0.69
2022-11-20T13:29:29.571Z,0.36
2022-11-20T13:34:33.453Z,0.03
2022-11-20T13:39:37.786Z,0.02
2022-11-20T13:44:43.667Z,-0.29
2022-11-20T13:49:49.134Z,-0.05
2022-11-20T13:55:07.781Z,0.09
2022-11-20T14:00:13.271Z,0.32
2022-11-20T14:05:22.401Z,0.16
2022-11-20T14:10:31.336Z,0.43
2022-11-20T14:15:36.046Z,1.10
2022-11-20T14:20:43.394Z,1.26
2022-11-20T14:25:46.130Z,1.41
2022-11-20T14:30:49.386Z,1.64
2022-11-20T14:35:54.789Z,1.47
2022-11-20T14:41:07.222Z,1.32
2022-11-20T14:46:11.266Z,1.32
2022-11-20T14:51:23.915Z,1.33
2022-11-20T14:56:26.017Z,1.11
2022-11-20T15:01:29.385Z,1.41
2022-11-20T15:06:32.795Z,1.55
2022-11-20T15:11:36.640Z,1.50
2022-11-20T15:16:40.393Z,1.20
2022-11-20T15:21:43.709Z,1.50
2022-11-20T15:26:45.952Z,1.74
2022-11-20T15:31:47.955Z,2.01
2022-11-20T15:36:51.273Z,1.85
2022-11-20T15:41:53.226Z,1.98
2022-11-20T15:46:55.496Z,2.03
2022-11-20T15:51:58.779Z,1.88
2022-11-20T15:57:01.741Z,1.82
2022-11-20T16:02:03.746Z,2.07
2022-11-20T16:07:07.186Z,2.09
2022-11-20T16:12:30.534Z,1.98
2022-11-20T16:17:43.402Z,1.88
2022-11-20T16:22:46.731Z,2.20
2022-11-20T16:27:48.660Z,2.10
2022-11-20T16:32:50.765Z,2.24
2022-11-20T16:37:54.089Z,2.24
2022-11-20T16:42:57.927Z,2.33
2022-11-20T16:48:00.823Z,2.33
2022-11-20T16:53:04.083Z,2.22
2022-11-20T16:58:06.692Z,2.27
2022-11-20T17:03:09.147Z,2.42
2022-11-20T17:08:12.497Z,2.26
2022-11-20T17:13:14.800Z,2.03
2022-11-20T17:18:16.773Z,2.11
2022-11-20T17:23:20.025Z,1.85
2022-11-20T17:28:22.008Z,1.89
2022-11-20T17:33:24.049Z,1.44
2022-11-20T17:38:27.558Z,1.59
2022-11-20T17:43:35.343Z,1.67
2022-11-20T17:48:38.192Z,1.71
2022-11-20T17:53:43.615Z,1.80
2022-11-20T17:58:45.613Z,2.00
2022-11-20T18:03:47.704Z,1.96
2022-11-20T18:08:51.737Z,1.96
2022-11-20T18:14:13.400Z,2.15
2022-11-20T18:19:18.054Z,2.17
2022-11-20T18:24:22.181Z,1.98
2022-11-20T18:29:25.321Z,2.05
2022-11-20T18:34:27.983Z,2.12
2022-11-20T18:39:32.419Z,2.24
2022-11-20T18:44:53.569Z,2.37
2022-11-20T18:49:57.419Z,2.21
2022-11-20T18:55:02.490Z,2.29
2022-11-20T19:00:09.220Z,2.05
2022-11-20T19:05:12.945Z,2.14
2022-11-20T19:10:20.066Z,2.22
2022-11-20T19:15:22.345Z,2.28
2022-11-20T19:20:24.558Z,2.16
2022-11-20T19:25:27.869Z,2.35
2022-11-20T19:30:30.049Z,2.44
2022-11-20T19:35:32.031Z,2.32
2022-11-20T19:40:35.366Z,2.45
2022-11-20T19:45:37.345Z,2.35
2022-11-20T19:50:39.306Z,2.47
2022-11-20T20:00:47.689Z,2.53
2022-11-20T20:05:49.651Z,2.64
2022-11-20T20:10:56.696Z,2.69
2022-11-20T20:16:01.422Z,2.62
2022-11-20T20:21:04.432Z,2.62
2022-11-20T20:26:09.098Z,2.57
2022-11-20T20:31:12.987Z,2.51
2022-11-20T20:36:15.593Z,2.44
2022-11-20T20:41:21.622Z,2.33
2022-11-20T20:46:23.912Z,1.86
2022-11-20T20:51:26.170Z,1.98
2022-11-20T20:56:29.474Z,2.00
2022-11-20T21:01:31.486Z,2.04
2022-11-20T21:06:33.545Z,2.36
2022-11-20T21:11:36.825Z,2.37
2022-11-20T21:16:43.739Z,2.49
2022-11-20T21:22:02.902Z,2.51
2022-11-20T21:27:06.849Z,2.60
2022-11-20T21:32:08.621Z,2.61
2022-11-20T21:37:10.558Z,2.68
2022-11-20T21:42:14.788Z,2.72
2022-11-20T21:47:16.751Z,2.72
2022-11-20T21:52:18.788Z,2.68
2022-11-20T21:57:22.074Z,2.82
2022-11-20T22:02:24.034Z,2.49
2022-11-20T22:07:26.068Z,2.51
2022-11-20T22:12:29.393Z,1.93
2022-11-20T22:17:49.827Z,1.18
2022-11-20T22:22:51.764Z,1.19
2022-11-20T22:27:55.161Z,1.00
2022-11-20T22:32:57.088Z,0.98
2022-11-20T22:37:59.102Z,1.56
2022-11-20T22:43:02.375Z,1.67
2022-11-20T22:48:04.937Z,1.72
2022-11-20T22:53:06.867Z,1.78
2022-11-20T22:58:10.125Z,1.92
2022-11-20T23:03:12.101Z,1.93
2022-11-20T23:08:14.057Z,2.05
2022-11-20T23:13:17.311Z,2.09
2022-11-20T23:18:19.353Z,1.83
2022-11-20T23:23:21.416Z,1.65
2022-11-20T23:28:24.683Z,1.66
2022-11-20T23:33:26.798Z,1.65
2022-11-20T23:38:28.725Z,1.50
2022-11-20T23:43:32.539Z,1.48
2022-11-20T23:48:36.515Z,1.32
2022-11-20T23:53:38.383Z,1.35
2022-11-20T23:58:42.470Z,1.52
